Magnolia, Minnesota
Current Conditions -  °F | °C
As of 12:34 PM on Thursday 30 Oct 2014 (Local Time) from KLYV Reporting Station
Clear Clear  
Wind Chill: 57°   Ceiling: Unl
Heat Index: 57°   Visibility: 10mi
Dew Point: 34°   Wind: 10mph
Humidity: 41%   Direction: 360°N
Pressure: 30.09"   Gusts: 18mph
Location:  43.65°N, 96.08°W
Report Text: KLYV 301734Z AUTO 36009G16KT 10SM CLR 14/01 A3009 RMK AO2
Loading
Personal Weather Stations






























Interactive Weather Map
Tropical Storm Tracking
New forecast layout! Learn more

10-Day Weather Forecast

Advertisements
Track Severe Weather on mobile